Time;durP1;ratioP1;P1;durP2;ratioP2;P2;SDS_P1;SDS_P2;PMS_P1;PMS_P2;Temp;Humidity;BMP_temperature;BMP_pressure;BME280_temperature;BME280_humidity;BME280_pressure;Samples;Min_cycle;Max_cycle;Signal;HPM_P1;HPM_P2
2023/06/06 00:00:21;;;;;;;5.25;3.60;;;;;;;21.93;50.07;99936.69;4947263;28;20426;-86
2023/06/06 00:02:48;;;;;;;4.07;3.60;;;;;;;21.82;50.45;99935.41;4927306;28;20046;-87
2023/06/06 00:05:16;;;;;;;5.80;3.78;;;;;;;21.79;50.22;99940.41;4940730;28;20078;-86
2023/06/06 00:07:45;;;;;;;3.95;3.17;;;;;;;21.80;50.64;99939.34;4943700;28;20097;-87
2023/06/06 00:10:15;;;;;;;4.85;3.75;;;;;;;21.71;50.82;99940.59;4928393;28;20069;-87
2023/06/06 00:12:43;;;;;;;3.85;3.55;;;;;;;21.74;50.65;99934.78;4947241;28;20042;-87
2023/06/06 00:15:14;;;;;;;5.55;3.65;;;;;;;21.78;50.22;99933.31;4943580;28;20422;-87
2023/06/06 00:17:42;;;;;;;5.88;4.28;;;;;;;21.82;49.69;99939.97;4947687;28;20070;-86
2023/06/06 00:20:11;;;;;;;7.13;4.20;;;;;;;21.80;49.90;99942.88;4938617;28;20120;-87
2023/06/06 00:22:39;;;;;;;5.10;4.18;;;;;;;21.76;50.06;99946.22;4967453;28;20046;-87
2023/06/06 00:25:07;;;;;;;7.82;4.03;;;;;;;21.72;50.16;99937.69;4974101;28;20049;-87
2023/06/06 00:27:35;;;;;;;3.92;3.60;;;;;;;21.72;49.97;99940.38;4974750;28;20533;-87
2023/06/06 00:30:03;;;;;;;5.65;4.00;;;;;;;21.70;50.10;99942.44;4946919;28;20081;-88
2023/06/06 00:32:32;;;;;;;4.22;3.60;;;;;;;21.67;50.04;99934.75;4952591;28;20057;-87
2023/06/06 00:34:59;;;;;;;6.15;3.67;;;;;;;21.65;49.97;99939.53;4949427;28;20053;-87
2023/06/06 00:37:26;;;;;;;6.88;4.55;;;;;;;21.68;49.95;99944.56;4966228;28;20042;-87
2023/06/06 00:39:53;;;;;;;4.53;3.83;;;;;;;21.62;50.20;99932.66;4945784;28;20135;-88
2023/06/06 00:42:19;;;;;;;6.70;4.57;;;;;;;21.58;50.26;99938.72;4941059;28;20087;-87
2023/06/06 00:44:46;;;;;;;5.22;3.58;;;;;;;21.61;50.39;99936.41;4949956;28;20053;-87
2023/06/06 00:47:13;;;;;;;4.05;3.65;;;;;;;21.54;50.66;99951.78;4944111;28;20051;-87
2023/06/06 00:49:42;;;;;;;4.75;3.85;;;;;;;21.52;50.66;99950.31;4944027;28;20055;-87
2023/06/06 00:52:09;;;;;;;5.03;4.00;;;;;;;21.41;50.78;99941.78;4944385;28;20042;-87
2023/06/06 00:54:36;;;;;;;3.65;3.35;;;;;;;21.40;51.24;99944.69;4953960;28;20047;-87
2023/06/06 00:57:07;;;;;;;6.95;3.97;;;;;;;21.33;50.94;99938.41;4936773;28;20046;-87
2023/06/06 00:59:34;;;;;;;3.85;3.42;;;;;;;21.34;51.20;99942.75;4911821;28;20082;-87
2023/06/06 01:02:04;;;;;;;5.10;4.00;;;;;;;21.28;51.40;99943.59;4912898;28;20055;-87
2023/06/06 01:04:31;;;;;;;6.35;3.95;;;;;;;21.18;51.21;99939.38;4942353;28;20133;-88
2023/06/06 01:06:58;;;;;;;5.82;4.05;;;;;;;21.18;51.50;99949.38;4941915;28;20134;-87
2023/06/06 01:09:25;;;;;;;4.45;3.80;;;;;;;21.11;51.52;99945.81;4925723;28;20050;-87
2023/06/06 01:12:40;;;;;;;4.28;3.50;;;;;;;20.93;52.45;99951.75;4957536;28;20043;-87
2023/06/06 01:15:16;;;;;;;6.15;4.05;;;;;;;20.94;52.36;99945.31;4956564;28;20043;-89
2023/06/06 01:17:46;;;;;;;4.30;3.38;;;;;;;20.98;51.93;99935.78;4936195;28;20047;-88
2023/06/06 01:20:14;;;;;;;6.13;3.90;;;;;;;20.97;51.98;99939.53;4949896;28;20132;-88
2023/06/06 01:22:43;;;;;;;5.13;3.97;;;;;;;20.96;52.07;99936.00;4951164;28;20093;-86
2023/06/06 01:25:12;;;;;;;4.93;4.15;;;;;;;20.91;52.28;99941.13;4979978;28;20230;-86
2023/06/06 01:27:39;;;;;;;4.93;4.00;;;;;;;20.85;52.52;99938.41;4972772;28;20054;-87
2023/06/06 01:30:06;;;;;;;4.63;4.15;;;;;;;20.83;52.45;99945.88;4931544;28;20394;-87
2023/06/06 01:32:53;;;;;;;5.65;3.47;;;;;;;20.59;53.47;99943.47;4942329;28;20153;-88
2023/06/06 01:35:25;;;;;;;5.20;3.70;;;;;;;20.74;52.38;99939.81;4945185;28;20046;-87
2023/06/06 01:38:09;;;;;;;7.20;3.78;;;;;;;20.72;52.70;99936.50;4976478;28;20474;-87
2023/06/06 01:40:36;;;;;;;4.78;3.80;;;;;;;20.70;52.94;99936.69;4952743;28;20504;-87
2023/06/06 01:43:07;;;;;;;5.60;4.00;;;;;;;20.71;53.54;99937.50;4938347;28;20058;-87
2023/06/06 01:45:35;;;;;;;7.65;3.85;;;;;;;20.69;53.40;99945.81;4919112;28;20078;-87
2023/06/06 01:48:02;;;;;;;5.72;3.97;;;;;;;20.72;53.01;99945.41;4912107;28;20047;-87
2023/06/06 01:50:31;;;;;;;4.45;3.83;;;;;;;20.78;52.44;99944.59;4914027;28;20039;-87
2023/06/06 01:52:58;;;;;;;4.55;3.83;;;;;;;20.79;51.97;99943.59;4929602;28;20534;-87
2023/06/06 01:55:25;;;;;;;7.50;4.18;;;;;;;20.87;51.73;99950.69;4942210;28;20118;-87
2023/06/06 01:57:52;;;;;;;4.50;4.07;;;;;;;20.89;51.79;99951.31;4919200;28;20127;-87
2023/06/06 02:00:19;;;;;;;5.15;4.40;;;;;;;20.85;51.81;99950.03;4915290;28;20054;-87
2023/06/06 02:02:46;;;;;;;6.25;3.67;;;;;;;20.80;52.00;99945.25;4912993;28;20593;-87
2023/06/06 02:05:14;;;;;;;6.18;4.18;;;;;;;20.81;52.01;99948.75;4935185;28;20134;-88
2023/06/06 02:07:42;;;;;;;7.25;3.90;;;;;;;20.76;52.13;99952.09;4933201;28;20467;-87
2023/06/06 02:10:10;;;;;;;5.60;3.67;;;;;;;20.70;52.36;99949.34;4943292;28;20109;-88
2023/06/06 02:12:36;;;;;;;4.70;3.70;;;;;;;20.63;52.48;99945.75;4924927;28;20115;-87
2023/06/06 02:15:05;;;;;;;5.18;3.63;;;;;;;20.59;52.48;99940.78;4952077;28;20106;-87
2023/06/06 02:17:33;;;;;;;4.57;3.72;;;;;;;20.55;52.60;99949.47;4930913;28;20530;-87
2023/06/06 02:20:00;;;;;;;6.47;4.07;;;;;;;20.53;52.24;99946.94;4940802;28;20046;-87
2023/06/06 02:22:27;;;;;;;4.30;3.65;;;;;;;20.52;52.33;99953.34;4931727;28;20082;-88
2023/06/06 02:24:54;;;;;;;5.75;4.20;;;;;;;20.51;52.53;99957.09;4962390;28;20129;-87
2023/06/06 02:27:22;;;;;;;5.13;3.92;;;;;;;20.51;52.53;99953.56;4930558;28;20046;-87
2023/06/06 02:29:48;;;;;;;4.22;3.80;;;;;;;20.47;52.69;99955.81;4931639;28;20101;-87
2023/06/06 02:32:15;;;;;;;4.93;3.85;;;;;;;20.42;52.87;99954.75;4963338;28;20473;-86
2023/06/06 02:34:42;;;;;;;4.45;3.53;;;;;;;20.41;52.47;99953.91;4944291;28;20570;-87
2023/06/06 02:37:09;;;;;;;5.93;3.85;;;;;;;20.34;52.73;99953.03;4960971;28;20049;-87
2023/06/06 02:39:38;;;;;;;4.93;3.88;;;;;;;20.32;52.74;99953.22;4943668;28;20059;-88
2023/06/06 02:42:06;;;;;;;4.45;4.05;;;;;;;20.34;52.66;99951.16;4929378;28;20533;-88
2023/06/06 02:44:33;;;;;;;5.85;3.80;;;;;;;20.32;52.75;99955.91;4909455;28;20106;-86
2023/06/06 02:47:00;;;;;;;4.32;3.35;;;;;;;20.30;52.62;99960.69;4925028;28;20059;-88
2023/06/06 02:49:27;;;;;;;5.13;3.92;;;;;;;20.28;52.75;99965.44;4915401;28;20365;-86
2023/06/06 02:51:55;;;;;;;5.05;3.80;;;;;;;20.29;52.49;99963.56;4952355;28;20054;-86
2023/06/06 02:54:22;;;;;;;4.32;3.42;;;;;;;20.30;52.38;99955.28;4936850;28;20129;-87
2023/06/06 02:56:49;;;;;;;4.38;3.97;;;;;;;20.31;52.27;99956.94;4930541;28;20073;-86
2023/06/06 02:59:16;;;;;;;5.35;4.05;;;;;;;20.29;52.38;99952.78;4954447;28;20604;-88
2023/06/06 03:01:47;;;;;;;6.53;4.53;;;;;;;20.30;52.28;99965.22;4914818;28;20456;-87
2023/06/06 03:04:15;;;;;;;4.65;4.20;;;;;;;20.24;52.31;99957.94;4912613;28;20399;-88
2023/06/06 03:06:42;;;;;;;5.80;3.63;;;;;;;20.20;52.48;99957.50;4923188;28;20865;-87
2023/06/06 03:09:09;;;;;;;5.28;3.92;;;;;;;20.07;52.81;99960.06;4907527;28;20099;-88
2023/06/06 03:11:39;;;;;;;4.10;3.70;;;;;;;20.07;52.95;99968.97;4897497;28;20569;-88
2023/06/06 03:14:07;;;;;;;6.53;4.05;;;;;;;20.03;53.01;99969.59;4926564;28;20051;-87
2023/06/06 03:16:36;;;;;;;4.18;3.78;;;;;;;20.04;52.89;99965.84;4944957;28;20047;-87
2023/06/06 03:19:03;;;;;;;5.80;3.75;;;;;;;19.98;53.19;99970.16;4934875;28;20051;-88
2023/06/06 03:21:33;;;;;;;4.40;4.00;;;;;;;19.92;53.73;99971.78;4956235;28;20150;-86
2023/06/06 03:24:01;;;;;;;7.03;4.30;;;;;;;19.93;53.48;99981.50;4940711;28;20073;-88
2023/06/06 03:26:29;;;;;;;4.97;4.20;;;;;;;19.91;53.43;99977.34;4956938;28;20065;-86
2023/06/06 03:28:59;;;;;;;4.47;4.03;;;;;;;19.87;53.50;99984.13;4946158;28;20047;-86
2023/06/06 03:31:31;;;;;;;5.47;4.30;;;;;;;19.84;53.57;99977.25;4943356;28;20074;-87
2023/06/06 03:33:58;;;;;;;6.18;4.07;;;;;;;19.86;53.36;99983.31;4928914;28;20228;-88
2023/06/06 03:36:32;;;;;;;4.07;3.67;;;;;;;19.86;53.33;99985.16;4949186;28;20049;-87
2023/06/06 03:39:03;;;;;;;5.65;3.80;;;;;;;19.76;53.86;99982.78;4932782;28;20421;-87
2023/06/06 03:41:33;;;;;;;4.57;4.15;;;;;;;19.86;53.80;99993.25;4913780;28;20055;-87
2023/06/06 03:44:01;;;;;;;4.50;3.83;;;;;;;19.79;53.80;99976.19;4929454;28;20046;-87
2023/06/06 03:46:28;;;;;;;5.82;4.53;;;;;;;19.82;53.87;99986.56;4938402;28;20056;-87
2023/06/06 03:48:56;;;;;;;6.82;4.28;;;;;;;19.93;53.72;99992.28;4924035;28;20055;-87
2023/06/06 03:51:22;;;;;;;4.50;3.92;;;;;;;20.06;54.16;99993.44;4949425;28;20050;-87
2023/06/06 03:54:02;;;;;;;5.78;4.60;;;;;;;20.22;54.15;99978.84;4932674;28;20050;-86
2023/06/06 03:56:32;;;;;;;4.97;4.18;;;;;;;20.62;53.02;99995.38;4926145;28;20073;-89
2023/06/06 03:58:59;;;;;;;7.22;4.57;;;;;;;21.22;52.29;99991.16;4938166;28;20054;-89
2023/06/06 04:01:31;;;;;;;4.95;4.50;;;;;;;21.73;50.93;100001.53;4913299;28;20051;-89
2023/06/06 04:03:58;;;;;;;5.53;4.70;;;;;;;22.11;49.92;99993.66;4944675;28;20506;-88
2023/06/06 04:06:25;;;;;;;6.55;4.15;;;;;;;22.39;48.99;99997.22;4915269;28;20047;-87
2023/06/06 04:08:52;;;;;;;5.68;4.45;;;;;;;22.25;48.56;99996.41;4940347;28;20114;-88
2023/06/06 04:11:19;;;;;;;5.63;5.03;;;;;;;22.02;48.97;100000.31;4956390;28;20134;-88
2023/06/06 04:13:46;;;;;;;6.75;5.43;;;;;;;21.72;49.19;100002.53;4958647;28;20051;-88
2023/06/06 04:16:13;;;;;;;6.07;4.65;;;;;;;21.56;49.68;99992.94;4952991;28;20054;-88
2023/06/06 04:18:39;;;;;;;5.63;4.43;;;;;;;21.38;49.95;99995.34;4921601;28;20408;-88
2023/06/06 04:21:06;;;;;;;5.53;4.68;;;;;;;21.35;50.03;99999.28;4924476;28;20059;-87
2023/06/06 04:23:33;;;;;;;5.30;4.40;;;;;;;21.21;50.24;99990.28;4959661;28;20072;-89
2023/06/06 04:26:02;;;;;;;6.75;5.03;;;;;;;21.11;50.42;99999.81;4940229;28;20047;-87
2023/06/06 04:28:31;;;;;;;6.53;4.50;;;;;;;21.05;50.50;100001.44;4943814;28;20050;-87
2023/06/06 04:30:59;;;;;;;5.85;4.70;;;;;;;20.97;50.71;100005.13;4939284;28;20062;-87
2023/06/06 04:33:30;;;;;;;4.95;4.32;;;;;;;20.95;50.76;99995.56;4938099;28;20138;-88
2023/06/06 04:35:57;;;;;;;7.18;5.22;;;;;;;20.92;50.91;100002.19;4911742;28;20498;-88
2023/06/06 04:38:25;;;;;;;8.57;5.05;;;;;;;21.01;50.77;100002.88;4956534;28;20055;-88
2023/06/06 04:40:53;;;;;;;7.85;5.50;;;;;;;20.95;51.16;100003.66;4960661;28;20074;-88
2023/06/06 04:43:40;;;;;;;7.25;5.32;;;;;;;20.92;50.91;100007.59;4925866;28;20054;-87
2023/06/06 04:46:07;;;;;;;7.22;5.30;;;;;;;20.87;50.90;100009.25;4902131;28;20083;-90
2023/06/06 04:48:34;;;;;;;7.35;5.05;;;;;;;20.77;50.94;100001.50;4927755;28;20673;-88
2023/06/06 04:51:01;;;;;;;9.55;5.00;;;;;;;20.74;50.68;100010.00;4891876;28;20055;-88
2023/06/06 04:53:28;;;;;;;6.28;4.97;;;;;;;20.74;50.98;100013.50;4893464;28;20459;-87
2023/06/06 04:55:55;;;;;;;6.50;5.10;;;;;;;20.66;50.77;100000.19;4925183;28;20114;-86
2023/06/06 04:58:23;;;;;;;10.70;5.30;;;;;;;20.68;50.81;100006.19;4921972;28;20071;-86
2023/06/06 05:00:50;;;;;;;5.05;4.47;;;;;;;20.64;50.96;100004.13;4889523;28;20095;-86
2023/06/06 05:03:20;;;;;;;7.18;5.28;;;;;;;20.63;51.11;100013.22;4924752;28;20063;-87
2023/06/06 05:05:49;;;;;;;5.43;4.57;;;;;;;20.57;50.82;100017.53;4920653;28;20418;-87
2023/06/06 05:08:16;;;;;;;5.40;4.90;;;;;;;20.60;50.99;100019.84;4896194;28;20135;-87
2023/06/06 05:10:43;;;;;;;5.55;4.72;;;;;;;20.47;51.29;100014.31;4919515;28;20661;-87
2023/06/06 05:13:10;;;;;;;8.13;5.10;;;;;;;20.51;51.33;100021.00;4925738;28;20051;-87
2023/06/06 05:15:37;;;;;;;8.07;5.30;;;;;;;20.52;51.19;100017.25;4930772;28;20047;-87
2023/06/06 05:18:04;;;;;;;9.60;5.35;;;;;;;20.54;51.14;100020.59;4924644;28;20055;-88
2023/06/06 05:20:31;;;;;;;6.80;4.57;;;;;;;20.52;51.16;100012.69;4901603;28;20040;-88
2023/06/06 05:22:59;;;;;;;9.75;4.93;;;;;;;20.54;51.33;100013.38;4926757;28;20047;-87
2023/06/06 05:25:26;;;;;;;5.53;4.95;;;;;;;20.50;51.36;100017.44;4926804;28;20048;-87
2023/06/06 05:27:53;;;;;;;6.88;5.25;;;;;;;20.51;51.46;100016.44;4904346;28;20058;-87
2023/06/06 05:30:20;;;;;;;6.60;5.10;;;;;;;20.47;51.66;100012.44;4961237;28;20133;-88
2023/06/06 05:32:47;;;;;;;9.77;4.80;;;;;;;20.50;51.73;100013.94;4926809;28;20406;-87
2023/06/06 05:35:14;;;;;;;7.93;5.55;;;;;;;20.49;51.93;100014.97;4958390;28;20050;-87
2023/06/06 05:37:41;;;;;;;8.07;5.25;;;;;;;20.62;51.89;100014.25;4955471;28;20114;-87
2023/06/06 05:40:09;;;;;;;8.20;6.45;;;;;;;20.66;51.88;100023.59;4957732;28;20117;-87
2023/06/06 05:42:36;;;;;;;8.05;5.65;;;;;;;20.70;51.73;100012.22;4929908;28;20105;-88
2023/06/06 05:45:03;;;;;;;9.70;5.70;;;;;;;20.73;51.80;100024.50;4933647;28;20460;-88
2023/06/06 05:47:30;;;;;;;15.15;5.32;;;;;;;20.76;51.66;100027.66;4955964;28;20066;-87
2023/06/06 05:49:57;;;;;;;7.43;5.40;;;;;;;20.84;51.56;100021.25;4926801;28;20062;-87
2023/06/06 05:52:24;;;;;;;9.25;5.32;;;;;;;20.87;51.29;100022.72;4958285;28;20070;-87
2023/06/06 05:55:01;;;;;;;7.70;4.82;;;;;;;20.84;50.86;100021.25;4953575;28;20050;-88
2023/06/06 05:57:27;;;;;;;6.80;5.10;;;;;;;20.84;51.08;100026.66;4922905;28;20107;-87
2023/06/06 05:59:55;;;;;;;5.47;4.38;;;;;;;20.86;51.38;100021.03;4933509;28;20057;-87
2023/06/06 06:02:22;;;;;;;6.60;4.53;;;;;;;20.95;51.58;100017.16;4951188;28;20051;-87
2023/06/06 06:04:52;;;;;;;10.27;4.70;;;;;;;21.06;51.62;100023.88;4957474;28;20039;-87
2023/06/06 06:07:22;;;;;;;6.05;5.07;;;;;;;21.09;51.29;100026.16;4943962;28;20462;-86
2023/06/06 06:09:49;;;;;;;6.70;4.60;;;;;;;21.15;51.32;100023.50;4928625;28;20074;-86
2023/06/06 06:12:16;;;;;;;7.55;4.57;;;;;;;21.20;51.18;100021.03;4966597;28;20122;-87
2023/06/06 06:14:43;;;;;;;5.53;4.45;;;;;;;21.20;50.80;100023.75;4935089;28;20485;-87
2023/06/06 06:17:10;;;;;;;6.25;4.95;;;;;;;21.16;50.04;100014.34;4925865;28;20509;-88
2023/06/06 06:19:36;;;;;;;5.88;4.10;;;;;;;21.19;50.01;100021.22;4892284;28;20051;-87
2023/06/06 06:22:03;;;;;;;5.53;4.20;;;;;;;21.18;50.20;100022.28;4927745;28;20046;-87
2023/06/06 06:24:30;;;;;;;7.47;4.50;;;;;;;21.21;50.27;100021.88;4934625;28;20066;-87
2023/06/06 06:26:57;;;;;;;6.13;4.43;;;;;;;21.21;50.08;100027.28;4938671;28;20102;-87
2023/06/06 06:29:24;;;;;;;7.03;4.18;;;;;;;21.21;49.92;100017.28;4930347;28;20480;-87
2023/06/06 06:31:51;;;;;;;6.00;4.03;;;;;;;21.29;49.87;100027.09;4922230;28;20044;-87
2023/06/06 06:34:18;;;;;;;6.65;4.30;;;;;;;21.35;49.97;100025.47;4922059;28;20069;-86
2023/06/06 06:36:48;;;;;;;6.53;4.10;;;;;;;21.39;49.69;100021.34;4922794;28;20315;-87
2023/06/06 06:39:18;;;;;;;5.88;4.30;;;;;;;21.45;50.07;100018.69;4924663;28;20051;-86
2023/06/06 06:41:45;;;;;;;7.22;4.40;;;;;;;21.49;49.79;100031.78;4917009;28;20059;-87
2023/06/06 06:44:12;;;;;;;5.55;4.07;;;;;;;;;;4912360;28;20051;-85
2023/06/06 06:46:39;;;;;;;5.45;4.18;;;;;;;21.48;49.74;100038.25;4932330;28;20055;-87
2023/06/06 06:49:15;;;;;;;6.40;4.38;;;;;;;21.37;49.24;100037.75;4933864;28;20491;-87
2023/06/06 06:51:41;;;;;;;5.22;4.55;;;;;;;21.44;49.58;100035.91;4906521;28;20043;-87
2023/06/06 06:54:12;;;;;;;5.13;4.00;;;;;;;21.45;50.24;100044.88;4932733;28;20096;-87
2023/06/06 06:56:42;;;;;;;9.20;4.75;;;;;;;21.53;50.03;100043.88;4899840;28;20534;-87
2023/06/06 06:59:09;;;;;;;6.45;4.03;;;;;;;21.54;49.79;100045.53;4935990;28;20044;-87
2023/06/06 07:01:39;;;;;;;5.55;4.28;;;;;;;21.57;49.83;100043.25;4897466;28;20134;-88
2023/06/06 07:04:07;;;;;;;6.05;4.68;;;;;;;21.59;49.72;100037.63;4922907;28;20058;-87
2023/06/06 07:06:36;;;;;;;5.07;3.95;;;;;;;21.60;49.55;100039.28;4932459;28;20135;-87
2023/06/06 07:09:06;;;;;;;6.85;4.10;;;;;;;21.66;49.55;100046.63;4934733;28;20504;-87
2023/06/06 07:11:33;;;;;;;5.10;3.70;;;;;;;21.67;49.57;100045.56;4906297;28;20590;-87
2023/06/06 07:13:59;;;;;;;6.07;3.70;;;;;;;21.64;49.35;100044.09;4908844;28;20107;-86
2023/06/06 07:16:26;;;;;;;5.70;3.75;;;;;;;21.68;49.60;100039.13;4939331;28;20396;-87
2023/06/06 07:18:54;;;;;;;4.30;3.90;;;;;;;21.67;49.98;100030.16;4919963;28;20595;-87
2023/06/06 07:21:21;;;;;;;6.22;4.32;;;;;;;21.74;49.78;100038.31;4933408;28;20485;-87
2023/06/06 07:23:48;;;;;;;5.03;3.85;;;;;;;21.74;49.92;100032.09;4937580;28;20048;-87
2023/06/06 07:26:19;;;;;;;4.82;4.00;;;;;;;21.78;50.15;100033.31;4920525;28;20071;-87
2023/06/06 07:28:49;;;;;;;7.22;3.92;;;;;;;21.83;50.16;100042.50;4930069;28;20127;-87
2023/06/06 07:31:16;;;;;;;4.22;3.80;;;;;;;21.82;49.79;100035.41;4897355;28;20335;-87
2023/06/06 07:33:44;;;;;;;5.85;4.13;;;;;;;21.88;50.20;100036.50;4935066;28;20058;-87
2023/06/06 07:36:12;;;;;;;5.68;3.75;;;;;;;21.87;50.04;100030.22;4927866;28;20595;-87
2023/06/06 07:38:39;;;;;;;4.93;4.05;;;;;;;21.87;49.60;100024.00;4918863;28;20509;-87
2023/06/06 07:41:05;;;;;;;4.05;3.70;;;;;;;21.91;49.65;100027.97;4938756;28;20506;-87
2023/06/06 07:43:32;;;;;;;4.43;3.63;;;;;;;21.95;49.54;100031.91;4918878;28;20071;-87
2023/06/06 07:45:59;;;;;;;4.63;3.85;;;;;;;21.97;49.18;100029.84;4916383;28;20066;-87
2023/06/06 07:48:26;;;;;;;4.18;3.60;;;;;;;21.94;48.92;100027.56;4944845;28;20121;-87
2023/06/06 07:50:54;;;;;;;3.95;3.60;;;;;;;21.96;48.91;100021.94;4909709;28;20054;-87
2023/06/06 07:53:21;;;;;;;5.07;3.92;;;;;;;21.97;48.67;100019.03;4943236;28;20051;-88
2023/06/06 07:55:48;;;;;;;5.10;3.67;;;;;;;21.99;48.24;100018.81;4889837;28;20503;-87
2023/06/06 07:58:22;;;;;;;4.30;3.63;;;;;;;22.00;48.69;100018.59;4920940;28;20066;-88
2023/06/06 08:00:49;;;;;;;;;;;;;;;21.84;49.78;100022.53;4921161;28;20126;-88
2023/06/06 08:03:16;;;;;;;4.63;3.20;;;;;;;22.02;48.96;100016.53;4926895;28;19965;-88
2023/06/06 08:05:43;;;;;;;4.18;3.42;;;;;;;22.11;48.70;100017.19;4921079;28;20516;-88
2023/06/06 08:08:11;;;;;;;4.40;2.95;;;;;;;22.18;47.78;100020.69;4901807;28;20567;-87
2023/06/06 08:10:38;;;;;;;4.97;3.10;;;;;;;22.18;46.97;100011.75;4930927;28;20088;-88
2023/06/06 08:13:05;;;;;;;3.60;2.75;;;;;;;22.23;46.75;100025.53;4942442;28;20050;-87
2023/06/06 08:15:31;;;;;;;6.10;3.35;;;;;;;22.30;46.05;100024.50;4936591;28;20061;-87
2023/06/06 08:17:58;;;;;;;3.78;3.42;;;;;;;22.29;45.94;100016.59;4942542;28;20082;-88
2023/06/06 08:20:25;;;;;;;5.43;3.10;;;;;;;22.25;45.74;100018.88;4956035;28;20054;-88
2023/06/06 08:22:52;;;;;;;3.45;3.00;;;;;;;22.24;45.69;100011.81;4935692;28;20047;-87
2023/06/06 08:25:19;;;;;;;3.38;2.97;;;;;;;22.30;46.14;100015.56;4920431;28;20134;-87
2023/06/06 08:27:46;;;;;;;3.40;3.10;;;;;;;22.37;45.69;100023.69;4943147;28;20062;-88
2023/06/06 08:30:13;;;;;;;3.78;3.30;;;;;;;22.38;45.41;100009.09;4920435;28;20047;-88
2023/06/06 08:32:40;;;;;;;4.07;3.67;;;;;;;22.38;45.56;100011.81;4918727;28;20047;-88
2023/06/06 08:35:08;;;;;;;5.00;3.08;;;;;;;22.40;45.47;100005.13;4902329;28;20157;-88
2023/06/06 08:37:35;;;;;;;4.65;3.17;;;;;;;22.43;45.46;100007.41;4914229;28;20039;-88
2023/06/06 08:40:02;;;;;;;3.20;2.90;;;;;;;22.44;45.67;100005.53;4931565;28;20043;-88
2023/06/06 08:42:30;;;;;;;3.78;3.35;;;;;;;22.47;45.76;100019.50;4910789;28;24081;-87
2023/06/06 08:44:57;;;;;;;3.38;3.08;;;;;;;22.47;45.93;100013.25;4923550;28;20066;-88
2023/06/06 08:47:25;;;;;;;4.15;3.60;;;;;;;22.43;44.75;100003.88;4905443;28;20106;-89
2023/06/06 08:49:52;;;;;;;4.35;3.03;;;;;;;22.45;44.79;100004.53;4931399;28;20070;-88
2023/06/06 08:52:20;;;;;;;4.13;3.20;;;;;;;22.45;44.60;100001.81;4936870;28;20051;-87
2023/06/06 08:54:47;;;;;;;5.50;3.40;;;;;;;22.47;44.40;100010.56;4937254;28;20047;-88
2023/06/06 08:57:15;;;;;;;4.38;3.72;;;;;;;22.48;45.26;99995.97;4903583;28;20122;-88
2023/06/06 08:59:41;;;;;;;3.65;3.25;;;;;;;22.52;45.72;99999.94;4934324;28;20062;-88
2023/06/06 09:02:08;;;;;;;3.20;2.90;;;;;;;22.56;45.15;99992.22;4933143;28;20059;-88
2023/06/06 09:04:35;;;;;;;4.93;3.15;;;;;;;22.59;45.14;99994.50;4929001;28;20097;-89
2023/06/06 09:07:04;;;;;;;5.03;4.03;;;;;;;22.63;44.55;100001.16;4937259;28;20048;-87
2023/06/06 09:09:33;;;;;;;6.47;3.75;;;;;;;22.61;44.36;99987.84;4942774;28;20051;-88
2023/06/06 09:12:00;;;;;;;3.22;2.83;;;;;;;22.60;44.46;99999.72;4934609;28;20107;-88
2023/06/06 09:14:27;;;;;;;5.70;3.50;;;;;;;22.59;44.21;99994.50;4947082;28;20424;-88
2023/06/06 09:16:53;;;;;;;3.83;3.40;;;;;;;22.59;44.52;99998.03;4910345;28;20051;-88
2023/06/06 09:19:25;;;;;;;3.13;2.83;;;;;;;22.65;44.50;99999.91;4884012;28;20557;-88
2023/06/06 09:21:53;;;;;;;4.53;3.08;;;;;;;22.70;44.76;99988.47;4929448;28;20049;-89
2023/06/06 09:24:20;;;;;;;6.07;3.50;;;;;;;22.70;44.38;99981.16;4954389;28;20057;-87
2023/06/06 09:26:46;;;;;;;4.57;3.60;;;;;;;22.76;44.42;99988.44;4944804;28;20070;-87
2023/06/06 09:29:13;;;;;;;4.68;3.90;;;;;;;22.76;44.54;99980.31;4921394;28;20302;-88
2023/06/06 09:31:41;;;;;;;5.03;3.60;;;;;;;22.86;44.49;99981.75;4957220;28;20141;-87
2023/06/06 09:34:08;;;;;;;4.03;3.47;;;;;;;22.87;44.59;99981.56;4937285;28;20043;-88
2023/06/06 09:36:43;;;;;;;5.55;3.90;;;;;;;22.82;44.18;99981.38;4940438;28;20057;-87
2023/06/06 09:39:14;;;;;;;5.78;3.90;;;;;;;22.87;44.22;99981.56;4930804;28;20051;-87
2023/06/06 09:41:46;;;;;;;4.85;3.85;;;;;;;22.92;43.39;99978.19;4936101;28;20058;-87
2023/06/06 09:44:21;;;;;;;4.85;3.40;;;;;;;22.89;43.35;99975.91;4916026;28;20382;-89
2023/06/06 09:47:02;;;;;;;6.55;3.65;;;;;;;22.87;43.27;99969.88;4931654;28;20055;-89
2023/06/06 09:49:36;;;;;;;4.70;3.63;;;;;;;22.96;43.90;99966.72;4922864;28;20126;-89
2023/06/06 09:52:04;;;;;;;5.38;4.22;;;;;;;23.04;44.07;99968.38;4927543;28;20046;-86
2023/06/06 09:54:32;;;;;;;4.90;3.83;;;;;;;23.10;44.32;99972.97;4918244;28;20130;-89
2023/06/06 09:56:59;;;;;;;5.00;3.85;;;;;;;23.14;43.68;99976.06;4923068;28;20397;-88
2023/06/06 09:59:28;;;;;;;6.63;3.85;;;;;;;23.13;44.16;99969.00;4907542;28;20055;-87
2023/06/06 10:02:02;;;;;;;5.80;3.72;;;;;;;23.11;44.02;99963.78;4913511;28;20048;-88
2023/06/06 10:04:30;;;;;;;4.25;3.83;;;;;;;23.19;43.85;99960.00;4918000;28;20063;-88
2023/06/06 10:07:02;;;;;;;7.20;3.83;;;;;;;23.27;44.28;99965.16;4934523;28;20051;-87
2023/06/06 10:09:29;;;;;;;4.82;3.75;;;;;;;23.33;44.10;99958.03;4918855;28;20059;-88
2023/06/06 10:11:57;;;;;;;4.50;3.95;;;;;;;23.32;43.64;99954.50;4921745;28;20422;-88
2023/06/06 10:14:25;;;;;;;4.70;4.10;;;;;;;23.29;43.80;99967.66;4918169;28;20051;-88
2023/06/06 10:16:52;;;;;;;7.38;4.00;;;;;;;23.30;43.51;99956.59;4927418;28;20054;-88
2023/06/06 10:19:20;;;;;;;4.93;3.72;;;;;;;23.23;43.46;99960.38;4915115;28;20043;-87
2023/06/06 10:21:47;;;;;;;9.18;4.15;;;;;;;23.23;43.30;99957.69;4932809;28;20046;-88
2023/06/06 10:24:15;;;;;;;4.72;3.80;;;;;;;23.16;43.49;99952.31;4922316;28;20153;-87
2023/06/06 10:26:53;;;;;;;7.57;3.75;;;;;;;23.18;43.73;99955.63;4917011;28;20055;-89
2023/06/06 10:29:52;;;;;;;6.68;3.78;;;;;;;23.19;43.43;99957.28;4910314;28;20134;-87
2023/06/06 10:32:56;;;;;;;5.18;3.67;;;;;;;23.26;42.93;99951.84;4923309;28;20054;-88
2023/06/06 10:35:24;;;;;;;4.68;3.60;;;;;;;23.36;42.83;99949.50;4937107;28;20142;-88
2023/06/06 10:38:20;;;;;;;4.38;3.60;;;;;;;23.29;42.38;99944.09;4943054;28;20055;-88
2023/06/06 10:40:52;;;;;;;4.30;3.90;;;;;;;23.36;41.57;99949.50;4946527;28;20043;-87
2023/06/06 10:43:35;;;;;;;4.93;3.47;;;;;;;23.45;42.38;99955.50;4943259;28;20067;-88
2023/06/06 10:46:02;;;;;;;5.57;4.22;;;;;;;23.42;42.45;99945.09;4947405;28;20490;-88
2023/06/06 10:48:36;;;;;;;5.65;3.72;;;;;;;23.42;41.91;99937.78;4936422;28;20523;-87
2023/06/06 10:51:04;;;;;;;9.52;4.00;;;;;;;23.49;41.95;99943.19;4953288;28;20051;-87
2023/06/06 10:53:31;;;;;;;10.30;4.70;;;;;;;23.56;41.99;99944.81;4934692;28;20058;-88
2023/06/06 10:55:58;;;;;;;5.30;4.00;;;;;;;23.55;42.44;99936.88;4925840;28;20044;-88
2023/06/06 10:58:35;;;;;;;18.10;4.22;;;;;;;23.55;42.59;99935.00;4940880;28;20059;-87
2023/06/06 11:01:06;;;;;;;5.15;4.38;;;;;;;23.57;41.69;99945.63;4921313;28;20507;-87
2023/06/06 11:03:41;;;;;;;6.63;3.35;;;;;;;23.56;41.85;99935.81;4923510;28;20054;-87
2023/06/06 11:06:12;;;;;;;8.55;4.07;;;;;;;23.66;41.89;99936.19;4949910;28;20385;-88
2023/06/06 11:08:53;;;;;;;8.52;4.00;;;;;;;23.60;40.92;99954.13;4923020;28;20050;-88
2023/06/06 11:11:27;;;;;;;4.97;4.15;;;;;;;23.52;40.21;99954.41;4919097;28;20047;-88
2023/06/06 11:14:03;;;;;;;4.47;4.03;;;;;;;23.34;39.17;99936.16;4914333;28;20051;-87
2023/06/06 11:16:38;;;;;;;5.10;4.22;;;;;;;23.34;39.83;99932.63;4928556;28;20048;-87
2023/06/06 11:19:08;;;;;;;6.60;3.75;;;;;;;23.35;39.83;99934.28;4927324;28;20043;-88
2023/06/06 11:21:36;;;;;;;4.60;3.92;;;;;;;23.28;40.35;99925.34;4918108;28;20086;-87
2023/06/06 11:24:06;;;;;;;7.30;3.85;;;;;;;23.24;40.23;99916.00;4941232;28;20482;-87
2023/06/06 11:26:34;;;;;;;5.25;3.20;;;;;;;23.23;39.25;99927.88;4913396;28;20333;-87
2023/06/06 11:29:03;;;;;;;5.32;3.67;;;;;;;23.18;38.20;99923.97;4923893;28;20052;-87
2023/06/06 11:31:31;;;;;;;6.72;3.67;;;;;;;23.26;38.46;99931.00;4920504;28;20458;-88
2023/06/06 11:34:12;;;;;;;4.85;3.47;;;;;;;23.28;38.21;99925.34;4927501;28;20043;-88
2023/06/06 11:36:40;;;;;;;3.92;3.53;;;;;;;23.37;38.45;99927.59;4959216;28;20134;-87
2023/06/06 11:39:12;;;;;;;3.38;3.00;;;;;;;23.39;38.34;99924.69;4944467;28;20039;-88